Pine Ridge, Mississippi
Current Conditions -  °F | °C
As of 3:53 AM on Saturday 20 Dec 2014 (Local Time) from KHBG Reporting Station
Overcast Overcast  
Wind Chill: 42°   Ceiling: 800
Heat Index: 46°   Visibility: 10mi
Dew Point: 44°   Wind: 7mph
Humidity: 93%   Direction: 30°NNE
Pressure: 30.14"   Gusts: NA
Location:  31.1558°N, 89.5311°W
Report Text: KHBG 200953Z AUTO 03006KT 10SM OVC008 08/07 A3014 RMK AO2 SLP207 T00780067
Loading
Personal Weather Stations






























Interactive Weather Map New forecast layout! Learn more

10-Day Weather Forecast

Advertisements
Track Severe Weather on mobile